createdAt,value
2018-05-29T00:01:13.892Z,47.40
2018-05-29T00:03:40.423Z,47.30
2018-05-29T00:06:06.661Z,46.87
2018-05-29T00:08:32.864Z,45.70
2018-05-29T00:10:59.032Z,48.20
2018-05-29T00:13:25.372Z,47.00
2018-05-29T00:15:51.524Z,46.60
2018-05-29T00:18:17.914Z,47.80
2018-05-29T00:20:44.211Z,47.07
2018-05-29T00:23:11.132Z,48.17
2018-05-29T00:25:37.298Z,49.07
2018-05-29T00:28:03.464Z,46.23
2018-05-29T00:30:29.658Z,49.70
2018-05-29T00:32:55.808Z,49.50
2018-05-29T00:35:22.352Z,50.00
2018-05-29T00:37:48.532Z,50.17
2018-05-29T00:40:15.436Z,47.23
2018-05-29T00:42:41.608Z,49.80
2018-05-29T00:45:07.763Z,49.10
2018-05-29T00:47:33.980Z,49.73
2018-05-29T00:50:00.229Z,49.80
2018-05-29T00:52:26.773Z,50.67
2018-05-29T00:55:05.253Z,51.60
2018-05-29T00:57:31.586Z,54.10
2018-05-29T00:59:57.744Z,50.70
2018-05-29T01:02:23.908Z,50.03
2018-05-29T01:04:50.206Z,50.50
2018-05-29T01:07:16.395Z,52.40
2018-05-29T01:09:42.577Z,50.00
2018-05-29T01:12:08.766Z,51.53
2018-05-29T01:14:34.976Z,51.17
2018-05-29T01:17:01.145Z,52.20
2018-05-29T01:19:27.343Z,52.63
2018-05-29T01:21:53.815Z,50.53
2018-05-29T01:24:20.003Z,51.57
2018-05-29T01:26:46.160Z,56.07
2018-05-29T01:29:12.436Z,53.60
2018-05-29T01:31:39.340Z,54.77
2018-05-29T01:34:05.505Z,54.23
2018-05-29T01:36:32.424Z,52.17
2018-05-29T01:38:58.578Z,53.20
2018-05-29T01:41:25.572Z,54.00
2018-05-29T01:43:51.890Z,53.97
2018-05-29T01:46:18.064Z,54.50
2018-05-29T01:48:44.232Z,52.33
2018-05-29T01:51:10.729Z,51.20
2018-05-29T01:53:36.901Z,51.20
2018-05-29T01:56:03.238Z,53.20
2018-05-29T01:58:29.434Z,51.60
2018-05-29T02:00:56.749Z,53.77
2018-05-29T02:03:22.931Z,51.80
2018-05-29T02:05:49.123Z,52.83
2018-05-29T02:08:15.309Z,56.40
2018-05-29T02:10:41.422Z,52.90
2018-05-29T02:13:07.526Z,51.40
2018-05-29T02:15:33.611Z,52.77
2018-05-29T02:17:59.698Z,52.30
2018-05-29T02:20:25.781Z,53.23
2018-05-29T02:22:51.930Z,50.97
2018-05-29T02:25:18.022Z,52.77
2018-05-29T02:27:44.962Z,52.20
2018-05-29T02:30:11.053Z,51.90
2018-05-29T02:32:37.161Z,54.43
2018-05-29T02:35:03.267Z,52.67
2018-05-29T02:37:29.370Z,53.80
2018-05-29T02:39:56.202Z,51.67
2018-05-29T02:42:22.291Z,52.60
2018-05-29T02:44:48.407Z,52.57
2018-05-29T02:47:14.492Z,51.73
2018-05-29T02:49:41.431Z,52.23
2018-05-29T02:52:08.270Z,52.13
2018-05-29T02:54:34.354Z,49.90
2018-05-29T02:57:00.438Z,51.20
2018-05-29T02:59:27.269Z,51.30
2018-05-29T03:01:54.094Z,52.37
2018-05-29T03:04:20.285Z,49.23
2018-05-29T03:06:46.378Z,51.87
2018-05-29T03:09:13.201Z,53.33
2018-05-29T03:11:39.294Z,55.00
2018-05-29T03:14:05.443Z,53.37
2018-05-29T03:16:31.542Z,51.07
2018-05-29T03:18:57.631Z,54.17
2018-05-29T03:21:23.840Z,51.93
2018-05-29T03:23:50.672Z,51.30
2018-05-29T03:26:16.767Z,55.40
2018-05-29T03:28:45.382Z,54.80
2018-05-29T03:31:11.477Z,53.40
2018-05-29T03:33:37.623Z,52.83
2018-05-29T03:36:03.720Z,59.10
2018-05-29T03:38:29.794Z,57.10
2018-05-29T03:40:55.911Z,54.10
2018-05-29T03:43:21.993Z,59.10
2018-05-29T03:45:48.632Z,53.63
2018-05-29T03:48:14.709Z,54.57
2018-05-29T03:50:41.538Z,56.30
2018-05-29T03:53:07.633Z,53.50
2018-05-29T03:55:33.722Z,54.13
2018-05-29T03:58:01.003Z,54.50
2018-05-29T04:00:27.086Z,53.60
2018-05-29T04:02:53.165Z,53.30
2018-05-29T04:05:19.263Z,54.20
2018-05-29T04:07:45.402Z,53.13
2018-05-29T04:10:11.581Z,55.07
2018-05-29T04:12:37.769Z,54.00
2018-05-29T04:15:03.857Z,51.87
2018-05-29T04:17:30.685Z,52.20
2018-05-29T04:19:56.766Z,49.97
2018-05-29T04:22:22.876Z,50.17
2018-05-29T04:24:48.954Z,50.57
2018-05-29T04:27:15.040Z,47.07
2018-05-29T04:29:41.119Z,48.97
2018-05-29T04:32:07.953Z,49.47
2018-05-29T04:34:34.053Z,49.70
2018-05-29T04:37:00.151Z,49.70
2018-05-29T04:39:26.244Z,50.30
2018-05-29T04:41:53.095Z,49.43
2018-05-29T04:44:19.177Z,45.07
2018-05-29T04:46:45.275Z,51.20
2018-05-29T04:49:11.371Z,48.17
2018-05-29T04:51:38.535Z,49.67
2018-05-29T04:54:04.642Z,50.20
2018-05-29T04:56:31.544Z,46.13
2018-05-29T04:58:57.945Z,45.03
2018-05-29T05:01:24.025Z,47.37
2018-05-29T05:03:50.118Z,47.20
2018-05-29T05:06:16.210Z,48.80
2018-05-29T05:08:42.311Z,45.03
2018-05-29T05:11:09.146Z,44.83
2018-05-29T05:13:35.729Z,43.50
2018-05-29T05:16:01.821Z,44.80
2018-05-29T05:18:28.877Z,42.67
2018-05-29T05:20:55.714Z,42.93
2018-05-29T05:23:22.538Z,39.50
2018-05-29T05:25:49.002Z,41.33
2018-05-29T05:28:15.827Z,39.77
2018-05-29T05:30:42.670Z,39.10
2018-05-29T05:33:09.516Z,38.93
2018-05-29T05:35:36.347Z,37.03
2018-05-29T05:38:02.438Z,38.30
2018-05-29T05:40:28.531Z,36.97
2018-05-29T05:42:54.619Z,36.90
2018-05-29T05:45:20.714Z,35.27
2018-05-29T05:47:46.801Z,35.63
2018-05-29T05:50:13.635Z,33.30
2018-05-29T05:52:40.518Z,33.10
2018-05-29T05:55:07.296Z,31.33
2018-05-29T05:57:33.407Z,32.80
2018-05-29T05:59:59.481Z,30.90
2018-05-29T06:02:25.561Z,31.23
2018-05-29T06:04:51.777Z,30.00
2018-05-29T06:07:17.877Z,30.67
2018-05-29T06:09:43.978Z,29.07
2018-05-29T06:12:10.808Z,28.23
2018-05-29T06:14:36.905Z,27.60
2018-05-29T06:17:03.001Z,27.07
2018-05-29T06:19:29.084Z,25.57
2018-05-29T06:21:55.565Z,27.33
2018-05-29T06:24:21.702Z,25.77
2018-05-29T06:26:47.771Z,26.10
2018-05-29T06:29:13.862Z,24.33
2018-05-29T06:31:39.961Z,25.53
2018-05-29T06:34:06.042Z,24.37
2018-05-29T06:36:32.137Z,25.60
2018-05-29T06:38:58.246Z,24.33
2018-05-29T06:41:24.359Z,24.70
2018-05-29T06:43:50.502Z,24.80
2018-05-29T06:46:16.606Z,25.03
2018-05-29T06:48:42.805Z,24.33
2018-05-29T06:51:08.891Z,22.43
2018-05-29T06:53:34.969Z,24.07
2018-05-29T06:56:01.805Z,23.03
2018-05-29T06:58:28.654Z,23.97
2018-05-29T07:00:55.477Z,24.93
2018-05-29T07:03:21.557Z,23.37
2018-05-29T07:05:47.997Z,25.10
2018-05-29T07:08:14.085Z,22.57
2018-05-29T07:10:40.913Z,23.30
2018-05-29T07:13:07.006Z,23.63
2018-05-29T07:15:33.085Z,22.10
2018-05-29T07:17:59.951Z,24.67
2018-05-29T07:20:26.041Z,23.07
2018-05-29T07:22:52.991Z,22.87
2018-05-29T07:25:19.901Z,23.13
2018-05-29T07:27:45.986Z,23.53
2018-05-29T07:30:12.074Z,23.47
2018-05-29T07:32:38.169Z,21.90
2018-05-29T07:35:04.269Z,22.77
2018-05-29T07:37:30.345Z,22.03
2018-05-29T07:39:56.437Z,22.43
2018-05-29T07:42:22.530Z,22.40
2018-05-29T07:44:49.005Z,21.47
2018-05-29T07:47:15.081Z,21.27
2018-05-29T07:49:41.903Z,20.50
2018-05-29T07:52:07.990Z,21.70
2018-05-29T07:54:34.081Z,22.50
2018-05-29T07:57:00.930Z,21.70
2018-05-29T07:59:27.021Z,21.67
2018-05-29T08:01:53.123Z,20.77
2018-05-29T08:04:19.225Z,20.97
2018-05-29T08:06:45.325Z,21.13
2018-05-29T08:09:12.170Z,21.90
2018-05-29T08:11:38.985Z,23.07
2018-05-29T08:14:05.103Z,21.37
2018-05-29T08:16:31.205Z,22.53
2018-05-29T08:18:57.293Z,22.13
2018-05-29T08:21:23.389Z,21.30
2018-05-29T08:23:49.477Z,21.70
2018-05-29T08:26:15.576Z,23.43
2018-05-29T08:28:41.673Z,22.13
2018-05-29T08:31:08.584Z,20.67
2018-05-29T08:33:35.361Z,21.00
2018-05-29T08:36:02.329Z,21.30
2018-05-29T08:38:28.427Z,19.93
2018-05-29T08:40:54.507Z,21.00
2018-05-29T08:43:20.926Z,22.07
2018-05-29T08:45:47.015Z,21.90
2018-05-29T08:48:13.111Z,21.27
2018-05-29T08:50:39.195Z,20.07
2018-05-29T08:53:05.282Z,20.00
2018-05-29T08:55:31.389Z,21.10
2018-05-29T08:57:57.490Z,21.13
2018-05-29T09:00:23.615Z,20.80
2018-05-29T09:02:49.730Z,20.63
2018-05-29T09:05:23.129Z,19.77
2018-05-29T09:07:49.254Z,20.87
2018-05-29T09:10:15.341Z,20.13
2018-05-29T09:12:41.437Z,19.63
2018-05-29T09:15:07.550Z,20.80
2018-05-29T09:17:34.078Z,20.70
2018-05-29T09:20:00.200Z,20.27
2018-05-29T09:22:27.005Z,21.17
2018-05-29T09:24:53.965Z,21.07
2018-05-29T09:27:20.795Z,20.13
2018-05-29T09:29:47.775Z,20.43
2018-05-29T09:32:14.577Z,19.73
2018-05-29T09:34:41.433Z,19.87
2018-05-29T09:37:08.278Z,20.17
2018-05-29T09:39:35.128Z,19.83
2018-05-29T09:42:01.216Z,19.07
2018-05-29T09:44:27.414Z,19.93
2018-05-29T09:46:53.505Z,18.93
2018-05-29T09:49:20.326Z,18.70
2018-05-29T09:51:46.427Z,18.90
2018-05-29T09:54:12.505Z,18.50
2018-05-29T09:56:38.621Z,17.00
2018-05-29T09:59:05.466Z,17.23
2018-05-29T10:01:32.312Z,15.40
2018-05-29T10:03:59.142Z,16.20
2018-05-29T10:06:25.961Z,15.63
2018-05-29T10:08:52.082Z,16.77
2018-05-29T10:11:18.253Z,16.80
2018-05-29T10:13:44.290Z,17.80
2018-05-29T10:16:10.379Z,16.67
2018-05-29T10:18:36.454Z,16.50
2018-05-29T10:21:02.615Z,16.17
2018-05-29T10:23:28.731Z,15.80
2018-05-29T10:25:54.790Z,15.87
2018-05-29T10:28:21.616Z,16.77
2018-05-29T10:30:47.701Z,15.70
2018-05-29T10:33:13.789Z,16.50
2018-05-29T10:35:40.629Z,15.23
2018-05-29T10:38:07.461Z,14.50
2018-05-29T10:40:33.932Z,15.00
2018-05-29T10:43:00.016Z,15.60
2018-05-29T10:45:26.108Z,15.93
2018-05-29T10:47:52.657Z,15.50
2018-05-29T10:50:18.781Z,16.80
2018-05-29T10:52:44.885Z,15.80
2018-05-29T10:55:10.970Z,15.83
2018-05-29T10:57:37.801Z,15.90
2018-05-29T11:00:03.928Z,15.87
2018-05-29T11:02:30.772Z,17.33
2018-05-29T11:04:56.877Z,18.17
2018-05-29T11:07:22.966Z,17.60
2018-05-29T11:09:49.270Z,18.07
2018-05-29T11:12:16.153Z,17.90
2018-05-29T11:14:42.237Z,18.00
2018-05-29T11:17:09.070Z,17.70
2018-05-29T11:19:35.160Z,17.23
2018-05-29T11:22:01.281Z,17.90
2018-05-29T11:24:27.413Z,16.40
2018-05-29T11:26:53.493Z,17.23
2018-05-29T11:29:20.328Z,17.40
2018-05-29T11:31:47.157Z,17.30
2018-05-29T11:34:13.250Z,16.47
2018-05-29T11:36:39.342Z,16.90
2018-05-29T11:39:05.457Z,17.87
2018-05-29T11:41:31.554Z,15.97
2018-05-29T11:43:57.645Z,15.50
2018-05-29T11:46:23.742Z,15.57
2018-05-29T11:48:49.841Z,13.97
2018-05-29T11:51:15.933Z,16.03
2018-05-29T11:53:42.041Z,14.03
2018-05-29T11:56:08.565Z,14.50
2018-05-29T11:58:34.642Z,13.30
2018-05-29T12:01:00.731Z,13.30
2018-05-29T12:03:26.835Z,11.93
2018-05-29T12:05:52.951Z,12.00
2018-05-29T12:08:19.810Z,12.60
2018-05-29T12:10:45.897Z,13.97
2018-05-29T12:13:11.994Z,13.53
2018-05-29T12:15:38.083Z,13.27
2018-05-29T12:18:04.301Z,12.77
2018-05-29T12:20:30.383Z,12.50
2018-05-29T12:22:56.493Z,13.37
2018-05-29T12:25:22.618Z,12.77
2018-05-29T12:27:48.722Z,12.80
2018-05-29T12:30:14.820Z,11.70
2018-05-29T12:32:41.694Z,13.23
2018-05-29T12:35:07.794Z,12.53
2018-05-29T12:37:34.645Z,12.30
2018-05-29T12:40:00.730Z,13.53
2018-05-29T12:42:26.825Z,13.20
2018-05-29T12:44:52.949Z,13.17
2018-05-29T12:47:19.049Z,13.20
2018-05-29T12:49:45.226Z,13.00
2018-05-29T12:52:11.374Z,12.00
2018-05-29T12:54:37.454Z,12.70
2018-05-29T12:57:03.581Z,12.70
2018-05-29T12:59:29.673Z,12.80
2018-05-29T13:01:56.547Z,13.13
2018-05-29T13:04:22.663Z,13.93
2018-05-29T13:06:48.755Z,12.87
2018-05-29T13:09:15.581Z,13.50
2018-05-29T13:11:41.689Z,13.07
2018-05-29T13:14:07.905Z,12.40
2018-05-29T13:16:33.996Z,12.63
2018-05-29T13:19:00.088Z,13.70
2018-05-29T13:21:27.011Z,13.30
2018-05-29T13:23:53.517Z,12.83
2018-05-29T13:26:19.590Z,13.43
2018-05-29T13:28:45.678Z,13.33
2018-05-29T13:31:11.794Z,13.53
2018-05-29T13:33:37.874Z,13.87
2018-05-29T13:36:03.973Z,14.20
2018-05-29T13:38:30.064Z,14.30
2018-05-29T13:40:56.161Z,14.60
2018-05-29T13:43:22.997Z,14.47
2018-05-29T13:45:49.085Z,13.60
2018-05-29T13:48:15.174Z,12.63
2018-05-29T13:50:42.003Z,13.77
2018-05-29T13:53:08.826Z,13.80
2018-05-29T13:55:34.965Z,12.80
2018-05-29T13:58:01.054Z,12.47
2018-05-29T14:00:27.570Z,12.97
2018-05-29T14:02:53.753Z,13.80
2018-05-29T14:05:19.851Z,12.90
2018-05-29T14:07:46.464Z,13.40
2018-05-29T14:10:12.549Z,12.97
2018-05-29T14:12:39.374Z,13.70
2018-05-29T14:15:05.481Z,13.87
2018-05-29T14:17:31.701Z,13.10
2018-05-29T14:19:57.782Z,12.33
2018-05-29T14:22:24.615Z,11.87
2018-05-29T14:24:51.481Z,12.53
2018-05-29T14:27:17.573Z,12.00
2018-05-29T14:29:43.674Z,11.50
2018-05-29T14:32:09.757Z,11.90
2018-05-29T14:34:35.967Z,11.97
2018-05-29T14:37:02.805Z,12.87
2018-05-29T14:39:29.637Z,12.50
2018-05-29T14:41:55.721Z,12.43
2018-05-29T14:44:21.801Z,13.50
2018-05-29T14:46:48.642Z,13.23
2018-05-29T14:49:15.457Z,12.30
2018-05-29T14:51:41.666Z,12.87
2018-05-29T14:54:07.758Z,12.57
2018-05-29T14:56:33.862Z,12.67
2018-05-29T14:59:00.690Z,12.37
2018-05-29T15:01:26.774Z,11.33
2018-05-29T15:03:53.305Z,13.40
2018-05-29T15:06:19.381Z,12.10
2018-05-29T15:08:45.467Z,12.30
2018-05-29T15:11:11.574Z,12.07
2018-05-29T15:13:37.660Z,12.93
2018-05-29T15:16:03.853Z,12.10
2018-05-29T15:18:29.941Z,11.80
2018-05-29T15:20:56.046Z,12.90
2018-05-29T15:23:22.872Z,12.90
2018-05-29T15:25:48.965Z,12.67
2018-05-29T15:28:15.050Z,11.60
2018-05-29T15:30:42.334Z,11.73
2018-05-29T15:33:08.405Z,11.90
2018-05-29T15:35:34.498Z,11.67
2018-05-29T15:38:00.634Z,10.80
2018-05-29T15:40:26.734Z,10.83
2018-05-29T15:42:52.817Z,10.90
2018-05-29T15:45:18.929Z,10.73
2018-05-29T15:47:45.010Z,10.20
2018-05-29T15:50:11.125Z,11.33
2018-05-29T15:52:37.232Z,9.60
2018-05-29T15:55:04.070Z,10.10
2018-05-29T15:57:30.914Z,9.67
2018-05-29T15:59:57.785Z,10.17
2018-05-29T16:02:24.605Z,11.13
2018-05-29T16:04:51.434Z,9.93
2018-05-29T16:07:17.513Z,10.63
2018-05-29T16:09:44.813Z,11.53
2018-05-29T16:12:11.184Z,9.77
2018-05-29T16:14:37.455Z,10.77
2018-05-29T16:17:03.639Z,9.53
2018-05-29T16:19:29.765Z,9.97
2018-05-29T16:21:56.414Z,10.30
2018-05-29T16:24:22.502Z,9.37
2018-05-29T16:26:49.391Z,9.83
2018-05-29T16:29:15.492Z,8.37
2018-05-29T16:31:41.590Z,9.77
2018-05-29T16:34:07.690Z,9.40
2018-05-29T16:36:33.773Z,8.50
2018-05-29T16:38:59.863Z,7.87
2018-05-29T16:41:25.974Z,8.80
2018-05-29T16:43:52.092Z,7.83
2018-05-29T16:46:18.174Z,8.00
2018-05-29T16:48:44.621Z,7.70
2018-05-29T16:51:10.710Z,7.50
2018-05-29T16:53:37.541Z,6.90
2018-05-29T16:56:03.700Z,6.70
2018-05-29T16:58:29.785Z,7.50
2018-05-29T17:00:56.314Z,7.00
2018-05-29T17:03:22.465Z,7.30
2018-05-29T17:05:48.561Z,5.87
2018-05-29T17:08:14.794Z,6.10
2018-05-29T17:10:40.900Z,6.13
2018-05-29T17:13:07.247Z,6.53
2018-05-29T17:15:33.326Z,6.07
2018-05-29T17:18:00.170Z,5.50
2018-05-29T17:20:26.266Z,4.90
2018-05-29T17:22:52.349Z,5.10
2018-05-29T17:25:18.433Z,5.40
2018-05-29T17:27:45.269Z,5.93
2018-05-29T17:30:12.117Z,6.40
2018-05-29T17:32:38.945Z,5.47
2018-05-29T17:35:05.056Z,4.70
2018-05-29T17:37:31.167Z,5.63
2018-05-29T17:39:57.285Z,6.90
2018-05-29T17:42:23.651Z,7.53
2018-05-29T17:44:49.794Z,6.80
2018-05-29T17:47:16.639Z,7.23
2018-05-29T17:49:43.485Z,7.37
2018-05-29T17:52:10.322Z,6.63
2018-05-29T17:54:37.173Z,8.73
2018-05-29T17:57:04.010Z,8.77
2018-05-29T17:59:30.832Z,8.80
2018-05-29T18:01:56.930Z,9.27
2018-05-29T18:04:23.152Z,7.20
2018-05-29T18:06:49.235Z,7.43
2018-05-29T18:09:16.061Z,8.53
2018-05-29T18:11:42.194Z,7.77
2018-05-29T18:14:08.337Z,10.30
2018-05-29T18:16:34.391Z,9.67
2018-05-29T18:19:00.490Z,8.70
2018-05-29T18:21:27.373Z,9.83
2018-05-29T18:23:53.482Z,9.03
2018-05-29T18:26:19.570Z,9.57
2018-05-29T18:28:46.422Z,9.70
2018-05-29T18:31:13.318Z,11.20
2018-05-29T18:33:39.406Z,11.23
2018-05-29T18:36:05.511Z,9.63
2018-05-29T18:38:32.430Z,10.80
2018-05-29T18:40:58.486Z,10.50
2018-05-29T18:43:25.363Z,10.63
2018-05-29T18:45:51.487Z,11.40
2018-05-29T18:48:17.663Z,11.50
2018-05-29T18:50:44.054Z,10.00
2018-05-29T18:53:10.185Z,14.23
2018-05-29T18:55:36.340Z,11.60
2018-05-29T18:58:02.479Z,11.47
2018-05-29T19:00:28.589Z,8.80
2018-05-29T19:02:54.693Z,12.80
2018-05-29T19:05:20.794Z,9.80
2018-05-29T19:07:46.906Z,12.80
2018-05-29T19:10:13.743Z,13.80
2018-05-29T19:12:40.597Z,15.77
2018-05-29T19:15:06.746Z,12.90
2018-05-29T19:17:32.839Z,13.33
2018-05-29T19:19:59.705Z,13.17
2018-05-29T19:22:25.814Z,13.50
2018-05-29T19:24:52.666Z,13.80
2018-05-29T19:27:19.514Z,15.00
2018-05-29T19:29:45.614Z,15.77
2018-05-29T19:32:11.871Z,15.50
2018-05-29T19:34:37.950Z,15.40
2018-05-29T19:37:04.065Z,15.43
2018-05-29T19:39:30.249Z,15.30
2018-05-29T19:41:56.710Z,13.87
2018-05-29T19:44:22.810Z,14.27
2018-05-29T19:46:48.941Z,15.73
2018-05-29T19:49:15.069Z,17.73
2018-05-29T19:51:41.189Z,17.40
2018-05-29T19:54:07.746Z,14.90
2018-05-29T19:56:33.838Z,17.67
2018-05-29T19:59:00.723Z,17.47
2018-05-29T20:01:26.834Z,16.00
2018-05-29T20:03:52.942Z,15.67
2018-05-29T20:06:19.198Z,15.20
2018-05-29T20:08:45.312Z,15.93
2018-05-29T20:11:11.430Z,15.17
2018-05-29T20:13:37.528Z,17.77
2018-05-29T20:16:07.233Z,16.70
2018-05-29T20:18:33.337Z,16.90
2018-05-29T20:20:59.485Z,15.40
2018-05-29T20:23:25.590Z,14.30
2018-05-29T20:25:51.799Z,14.73
2018-05-29T20:28:18.053Z,13.70
2018-05-29T20:30:44.199Z,13.13
2018-05-29T20:33:10.253Z,13.40
2018-05-29T20:35:36.370Z,14.07
2018-05-29T20:38:03.546Z,13.17
2018-05-29T20:40:29.642Z,13.40
2018-05-29T20:42:56.484Z,14.10
2018-05-29T20:45:23.326Z,12.80
2018-05-29T20:47:50.166Z,13.53
2018-05-29T20:50:17.871Z,12.50
2018-05-29T20:52:44.000Z,10.97
2018-05-29T20:55:10.147Z,13.97
2018-05-29T20:57:36.269Z,13.80
2018-05-29T21:00:02.426Z,13.43
2018-05-29T21:02:28.615Z,13.00
2018-05-29T21:04:54.829Z,12.03
2018-05-29T21:07:20.949Z,12.40
2018-05-29T21:09:47.063Z,12.97
2018-05-29T21:12:13.153Z,13.40
2018-05-29T21:14:39.324Z,14.10
2018-05-29T21:17:05.479Z,14.20
2018-05-29T21:19:31.617Z,14.73
2018-05-29T21:21:57.737Z,15.33
2018-05-29T21:24:24.299Z,13.63
2018-05-29T21:26:50.433Z,13.60
2018-05-29T21:29:17.333Z,13.73
2018-05-29T21:31:43.481Z,15.10
2018-05-29T21:34:09.684Z,15.10
2018-05-29T21:36:35.800Z,14.33
2018-05-29T21:39:01.975Z,15.47
2018-05-29T21:41:28.933Z,14.80
2018-05-29T21:43:55.133Z,15.60
2018-05-29T21:46:21.384Z,14.50
2018-05-29T21:48:47.967Z,16.07
2018-05-29T21:51:14.086Z,15.97
2018-05-29T21:53:40.246Z,16.63
2018-05-29T21:56:08.451Z,16.60
2018-05-29T21:58:34.693Z,17.43
2018-05-29T22:01:01.558Z,17.40
2018-05-29T22:03:27.661Z,16.83
2018-05-29T22:05:53.757Z,17.70
2018-05-29T22:08:19.871Z,18.23
2018-05-29T22:10:46.293Z,18.27
2018-05-29T22:13:12.394Z,19.10
2018-05-29T22:15:38.602Z,20.07
2018-05-29T22:18:05.446Z,20.17
2018-05-29T22:20:32.402Z,19.80
2018-05-29T22:22:59.241Z,18.83
2018-05-29T22:25:26.075Z,18.60
2018-05-29T22:27:52.942Z,18.40
2018-05-29T22:30:19.407Z,19.20
2018-05-29T22:32:45.526Z,18.13
2018-05-29T22:35:11.617Z,18.77
2018-05-29T22:37:38.453Z,21.07
2018-05-29T22:40:05.289Z,19.70
2018-05-29T22:42:31.394Z,19.50
2018-05-29T22:44:57.490Z,18.90
2018-05-29T22:47:24.030Z,20.50
2018-05-29T22:49:50.187Z,18.20
2018-05-29T22:52:16.277Z,20.00
2018-05-29T22:54:42.378Z,18.50
2018-05-29T22:57:09.201Z,19.33
2018-05-29T22:59:36.494Z,20.07
2018-05-29T23:02:02.594Z,19.50
2018-05-29T23:04:29.430Z,19.33
2018-05-29T23:06:56.269Z,20.47
2018-05-29T23:09:23.098Z,19.57
2018-05-29T23:11:49.235Z,19.90
2018-05-29T23:14:15.322Z,20.50
2018-05-29T23:16:41.430Z,20.73
2018-05-29T23:19:07.513Z,19.57
2018-05-29T23:21:34.642Z,20.10
2018-05-29T23:24:00.831Z,21.03
2018-05-29T23:26:26.920Z,21.37
2018-05-29T23:28:53.757Z,21.60
2018-05-29T23:31:19.905Z,22.90
2018-05-29T23:33:46.735Z,22.27
2018-05-29T23:36:13.575Z,23.90
2018-05-29T23:38:40.865Z,23.40
2018-05-29T23:41:06.959Z,21.77
2018-05-29T23:43:33.790Z,23.90
2018-05-29T23:45:59.897Z,23.27
2018-05-29T23:48:25.976Z,23.07
2018-05-29T23:50:52.067Z,22.50
2018-05-29T23:53:18.914Z,23.27
2018-05-29T23:55:46.213Z,26.50
2018-05-29T23:58:12.303Z,25.00
